sensor_id;sensor_type;location;lat;lon;timestamp;temperature;humidity
14411;DHT22;7290;50.854;4.354;2023-05-29T00:00:18;16.70;99.90
14411;DHT22;7290;50.854;4.354;2023-05-29T00:02:47;16.60;99.90
14411;DHT22;7290;50.854;4.354;2023-05-29T00:05:14;16.70;99.90
14411;DHT22;7290;50.854;4.354;2023-05-29T00:07:41;16.60;99.90
14411;DHT22;7290;50.854;4.354;2023-05-29T00:10:09;16.70;99.90
14411;DHT22;7290;50.854;4.354;2023-05-29T00:12:38;16.70;99.90
14411;DHT22;7290;50.854;4.354;2023-05-29T00:15:05;16.70;99.90
14411;DHT22;7290;50.854;4.354;2023-05-29T00:17:32;16.70;99.90
14411;DHT22;7290;50.854;4.354;2023-05-29T00:19:59;16.70;99.90
14411;DHT22;7290;50.854;4.354;2023-05-29T00:22:27;16.70;99.90
14411;DHT22;7290;50.854;4.354;2023-05-29T00:24:53;16.60;99.90
14411;DHT22;7290;50.854;4.354;2023-05-29T00:27:19;16.50;99.90
14411;DHT22;7290;50.854;4.354;2023-05-29T00:29:47;16.40;99.90
14411;DHT22;7290;50.854;4.354;2023-05-29T00:32:13;16.30;99.90
14411;DHT22;7290;50.854;4.354;2023-05-29T00:34:39;16.30;99.90
14411;DHT22;7290;50.854;4.354;2023-05-29T00:37:07;16.20;99.90
14411;DHT22;7290;50.854;4.354;2023-05-29T00:39:36;16.10;99.90
14411;DHT22;7290;50.854;4.354;2023-05-29T00:42:03;16.10;99.90
14411;DHT22;7290;50.854;4.354;2023-05-29T00:44:30;16.10;99.90
14411;DHT22;7290;50.854;4.354;2023-05-29T00:46:56;16.10;99.90
14411;DHT22;7290;50.854;4.354;2023-05-29T00:49:26;16.00;99.90
14411;DHT22;7290;50.854;4.354;2023-05-29T00:51:54;16.00;99.90
14411;DHT22;7290;50.854;4.354;2023-05-29T00:54:25;16.00;99.90
14411;DHT22;7290;50.854;4.354;2023-05-29T00:56:53;15.90;99.90
14411;DHT22;7290;50.854;4.354;2023-05-29T00:59:20;15.80;99.90
14411;DHT22;7290;50.854;4.354;2023-05-29T01:01:48;15.80;99.90
14411;DHT22;7290;50.854;4.354;2023-05-29T01:04:16;15.60;99.90
14411;DHT22;7290;50.854;4.354;2023-05-29T01:06:43;15.60;99.90
14411;DHT22;7290;50.854;4.354;2023-05-29T01:09:09;15.60;99.90
14411;DHT22;7290;50.854;4.354;2023-05-29T01:11:44;15.60;99.90
14411;DHT22;7290;50.854;4.354;2023-05-29T01:14:20;15.50;99.90
14411;DHT22;7290;50.854;4.354;2023-05-29T01:16:59;15.50;99.90
14411;DHT22;7290;50.854;4.354;2023-05-29T01:19:42;15.50;99.90
14411;DHT22;7290;50.854;4.354;2023-05-29T01:22:18;15.60;99.90
14411;DHT22;7290;50.854;4.354;2023-05-29T01:24:49;15.60;99.90
14411;DHT22;7290;50.854;4.354;2023-05-29T01:27:19;15.60;99.90
14411;DHT22;7290;50.854;4.354;2023-05-29T01:29:47;15.60;99.90
14411;DHT22;7290;50.854;4.354;2023-05-29T01:32:15;15.40;99.90
14411;DHT22;7290;50.854;4.354;2023-05-29T01:34:42;15.30;99.90
14411;DHT22;7290;50.854;4.354;2023-05-29T01:37:08;15.30;99.90
14411;DHT22;7290;50.854;4.354;2023-05-29T01:39:35;15.30;99.90
14411;DHT22;7290;50.854;4.354;2023-05-29T01:42:02;15.20;99.90
14411;DHT22;7290;50.854;4.354;2023-05-29T01:44:29;15.40;99.90
14411;DHT22;7290;50.854;4.354;2023-05-29T01:46:58;15.30;99.90
14411;DHT22;7290;50.854;4.354;2023-05-29T01:49:26;15.30;99.90
14411;DHT22;7290;50.854;4.354;2023-05-29T01:51:53;15.10;99.90
14411;DHT22;7290;50.854;4.354;2023-05-29T01:54:20;15.10;99.90
14411;DHT22;7290;50.854;4.354;2023-05-29T01:56:47;15.10;99.90
14411;DHT22;7290;50.854;4.354;2023-05-29T01:59:14;15.10;99.90
14411;DHT22;7290;50.854;4.354;2023-05-29T02:01:42;15.10;99.90
14411;DHT22;7290;50.854;4.354;2023-05-29T02:04:08;15.10;99.90
14411;DHT22;7290;50.854;4.354;2023-05-29T02:06:34;15.00;99.90
14411;DHT22;7290;50.854;4.354;2023-05-29T02:09:01;14.90;99.90
14411;DHT22;7290;50.854;4.354;2023-05-29T02:11:27;14.90;99.90
14411;DHT22;7290;50.854;4.354;2023-05-29T02:13:53;14.80;99.90
14411;DHT22;7290;50.854;4.354;2023-05-29T02:16:20;14.70;99.90
14411;DHT22;7290;50.854;4.354;2023-05-29T02:18:47;14.60;99.90
14411;DHT22;7290;50.854;4.354;2023-05-29T02:21:13;14.60;99.90
14411;DHT22;7290;50.854;4.354;2023-05-29T02:23:40;14.60;99.90
14411;DHT22;7290;50.854;4.354;2023-05-29T02:26:07;14.60;99.90
14411;DHT22;7290;50.854;4.354;2023-05-29T02:28:33;14.70;99.90
14411;DHT22;7290;50.854;4.354;2023-05-29T02:31:01;14.70;99.90
14411;DHT22;7290;50.854;4.354;2023-05-29T02:33:28;14.80;99.90
14411;DHT22;7290;50.854;4.354;2023-05-29T02:35:56;14.80;99.90
14411;DHT22;7290;50.854;4.354;2023-05-29T02:38:22;14.60;99.90
14411;DHT22;7290;50.854;4.354;2023-05-29T02:40:49;14.60;99.90
14411;DHT22;7290;50.854;4.354;2023-05-29T02:43:15;14.70;99.90
14411;DHT22;7290;50.854;4.354;2023-05-29T02:45:41;14.80;99.90
14411;DHT22;7290;50.854;4.354;2023-05-29T02:48:08;14.70;99.90
14411;DHT22;7290;50.854;4.354;2023-05-29T02:50:34;14.50;99.90
14411;DHT22;7290;50.854;4.354;2023-05-29T02:53:01;14.30;99.90
14411;DHT22;7290;50.854;4.354;2023-05-29T02:55:28;14.10;99.90
14411;DHT22;7290;50.854;4.354;2023-05-29T02:57:54;14.10;99.90
14411;DHT22;7290;50.854;4.354;2023-05-29T03:00:21;14.20;99.90
14411;DHT22;7290;50.854;4.354;2023-05-29T03:02:48;14.30;99.90
14411;DHT22;7290;50.854;4.354;2023-05-29T03:05:15;14.20;99.90
14411;DHT22;7290;50.854;4.354;2023-05-29T03:07:42;14.20;99.90
14411;DHT22;7290;50.854;4.354;2023-05-29T03:10:10;14.00;99.90
14411;DHT22;7290;50.854;4.354;2023-05-29T03:12:37;13.90;99.90
14411;DHT22;7290;50.854;4.354;2023-05-29T03:15:05;13.80;99.90
14411;DHT22;7290;50.854;4.354;2023-05-29T03:17:33;13.80;99.90
14411;DHT22;7290;50.854;4.354;2023-05-29T03:20:03;13.80;99.90
14411;DHT22;7290;50.854;4.354;2023-05-29T03:22:31;13.70;99.90
14411;DHT22;7290;50.854;4.354;2023-05-29T03:24:57;13.70;99.90
14411;DHT22;7290;50.854;4.354;2023-05-29T03:27:24;13.70;99.90
14411;DHT22;7290;50.854;4.354;2023-05-29T03:29:51;13.60;99.90
14411;DHT22;7290;50.854;4.354;2023-05-29T03:32:18;13.70;99.90
14411;DHT22;7290;50.854;4.354;2023-05-29T03:34:45;13.60;99.90
14411;DHT22;7290;50.854;4.354;2023-05-29T03:37:12;13.60;99.90
14411;DHT22;7290;50.854;4.354;2023-05-29T03:39:38;13.60;99.90
14411;DHT22;7290;50.854;4.354;2023-05-29T03:42:05;13.60;99.90
14411;DHT22;7290;50.854;4.354;2023-05-29T03:44:32;13.70;99.90
14411;DHT22;7290;50.854;4.354;2023-05-29T03:46:59;13.60;99.90
14411;DHT22;7290;50.854;4.354;2023-05-29T03:49:25;13.50;99.90
14411;DHT22;7290;50.854;4.354;2023-05-29T03:51:52;13.50;99.90
14411;DHT22;7290;50.854;4.354;2023-05-29T03:54:21;13.50;99.90
14411;DHT22;7290;50.854;4.354;2023-05-29T03:56:47;13.40;99.90
14411;DHT22;7290;50.854;4.354;2023-05-29T03:59:13;13.50;99.90
14411;DHT22;7290;50.854;4.354;2023-05-29T04:01:41;13.50;99.90
14411;DHT22;7290;50.854;4.354;2023-05-29T04:04:07;13.40;99.90
14411;DHT22;7290;50.854;4.354;2023-05-29T04:06:33;13.50;99.90
14411;DHT22;7290;50.854;4.354;2023-05-29T04:09:04;13.40;99.90
14411;DHT22;7290;50.854;4.354;2023-05-29T04:11:30;13.20;99.90
14411;DHT22;7290;50.854;4.354;2023-05-29T04:13:59;13.30;99.90
14411;DHT22;7290;50.854;4.354;2023-05-29T04:16:27;13.40;99.90
14411;DHT22;7290;50.854;4.354;2023-05-29T04:18:54;13.40;99.90
14411;DHT22;7290;50.854;4.354;2023-05-29T04:21:21;13.40;99.90
14411;DHT22;7290;50.854;4.354;2023-05-29T04:23:48;13.40;99.90
14411;DHT22;7290;50.854;4.354;2023-05-29T04:26:14;13.30;99.90
14411;DHT22;7290;50.854;4.354;2023-05-29T04:28:41;13.40;99.90
14411;DHT22;7290;50.854;4.354;2023-05-29T04:31:09;13.60;99.90
14411;DHT22;7290;50.854;4.354;2023-05-29T04:33:39;13.60;99.90
14411;DHT22;7290;50.854;4.354;2023-05-29T04:36:08;13.60;99.90
14411;DHT22;7290;50.854;4.354;2023-05-29T04:38:36;13.50;99.90
14411;DHT22;7290;50.854;4.354;2023-05-29T04:41:03;13.60;99.90
14411;DHT22;7290;50.854;4.354;2023-05-29T04:43:33;13.80;99.90
14411;DHT22;7290;50.854;4.354;2023-05-29T04:46:02;14.00;99.90
14411;DHT22;7290;50.854;4.354;2023-05-29T04:48:29;14.00;99.90
14411;DHT22;7290;50.854;4.354;2023-05-29T04:50:55;14.00;99.90
14411;DHT22;7290;50.854;4.354;2023-05-29T04:53:25;13.90;99.90
14411;DHT22;7290;50.854;4.354;2023-05-29T04:55:53;13.70;99.90
14411;DHT22;7290;50.854;4.354;2023-05-29T04:58:19;13.60;99.90
14411;DHT22;7290;50.854;4.354;2023-05-29T05:00:46;13.50;99.90
14411;DHT22;7290;50.854;4.354;2023-05-29T05:03:13;13.50;99.90
14411;DHT22;7290;50.854;4.354;2023-05-29T05:05:42;13.60;99.90
14411;DHT22;7290;50.854;4.354;2023-05-29T05:08:12;13.80;99.90
14411;DHT22;7290;50.854;4.354;2023-05-29T05:10:39;14.10;99.90
14411;DHT22;7290;50.854;4.354;2023-05-29T05:13:06;15.00;99.90
14411;DHT22;7290;50.854;4.354;2023-05-29T05:15:32;16.20;99.90
14411;DHT22;7290;50.854;4.354;2023-05-29T05:18:02;16.60;99.90
14411;DHT22;7290;50.854;4.354;2023-05-29T05:20:28;17.40;99.90
14411;DHT22;7290;50.854;4.354;2023-05-29T05:22:54;17.80;99.90
14411;DHT22;7290;50.854;4.354;2023-05-29T05:25:21;17.70;99.90
14411;DHT22;7290;50.854;4.354;2023-05-29T05:27:48;17.30;99.90
14411;DHT22;7290;50.854;4.354;2023-05-29T05:30:14;17.60;99.90
14411;DHT22;7290;50.854;4.354;2023-05-29T05:32:41;18.20;99.90
14411;DHT22;7290;50.854;4.354;2023-05-29T05:35:08;19.10;99.90
14411;DHT22;7290;50.854;4.354;2023-05-29T05:37:36;20.00;99.90
14411;DHT22;7290;50.854;4.354;2023-05-29T05:40:03;20.40;99.90
14411;DHT22;7290;50.854;4.354;2023-05-29T05:42:32;20.10;99.90
14411;DHT22;7290;50.854;4.354;2023-05-29T05:44:59;20.10;99.90
14411;DHT22;7290;50.854;4.354;2023-05-29T05:47:25;20.60;99.90
14411;DHT22;7290;50.854;4.354;2023-05-29T05:49:53;21.50;99.90
14411;DHT22;7290;50.854;4.354;2023-05-29T05:52:20;20.70;99.90
14411;DHT22;7290;50.854;4.354;2023-05-29T05:54:46;20.80;99.90
14411;DHT22;7290;50.854;4.354;2023-05-29T05:57:12;21.60;99.70
14411;DHT22;7290;50.854;4.354;2023-05-29T05:59:38;20.90;99.90
14411;DHT22;7290;50.854;4.354;2023-05-29T06:02:06;20.20;99.90
14411;DHT22;7290;50.854;4.354;2023-05-29T06:04:32;20.20;99.90
14411;DHT22;7290;50.854;4.354;2023-05-29T06:06:58;20.30;99.90
14411;DHT22;7290;50.854;4.354;2023-05-29T06:09:24;20.70;99.90
14411;DHT22;7290;50.854;4.354;2023-05-29T06:11:51;20.90;99.90
14411;DHT22;7290;50.854;4.354;2023-05-29T06:14:17;20.60;99.90
14411;DHT22;7290;50.854;4.354;2023-05-29T06:16:43;20.40;99.90
14411;DHT22;7290;50.854;4.354;2023-05-29T06:19:10;20.30;99.90
14411;DHT22;7290;50.854;4.354;2023-05-29T06:21:37;21.30;99.70
14411;DHT22;7290;50.854;4.354;2023-05-29T06:24:04;22.10;98.60
14411;DHT22;7290;50.854;4.354;2023-05-29T06:26:31;21.60;98.50
14411;DHT22;7290;50.854;4.354;2023-05-29T06:29:01;22.20;98.10
14411;DHT22;7290;50.854;4.354;2023-05-29T06:31:27;23.10;96.80
14411;DHT22;7290;50.854;4.354;2023-05-29T06:33:54;22.80;97.20
14411;DHT22;7290;50.854;4.354;2023-05-29T06:36:21;23.10;96.70
14411;DHT22;7290;50.854;4.354;2023-05-29T06:38:48;23.30;96.30
14411;DHT22;7290;50.854;4.354;2023-05-29T06:41:14;23.40;96.00
14411;DHT22;7290;50.854;4.354;2023-05-29T06:43:41;24.40;94.80
14411;DHT22;7290;50.854;4.354;2023-05-29T06:46:07;24.60;94.20
14411;DHT22;7290;50.854;4.354;2023-05-29T06:48:33;24.70;93.70
14411;DHT22;7290;50.854;4.354;2023-05-29T06:51:00;24.50;93.90
14411;DHT22;7290;50.854;4.354;2023-05-29T06:53:27;24.20;94.00
14411;DHT22;7290;50.854;4.354;2023-05-29T06:55:53;23.90;94.20
14411;DHT22;7290;50.854;4.354;2023-05-29T06:58:19;23.70;94.40
14411;DHT22;7290;50.854;4.354;2023-05-29T07:00:46;23.80;94.30
14411;DHT22;7290;50.854;4.354;2023-05-29T07:03:12;24.50;93.40
14411;DHT22;7290;50.854;4.354;2023-05-29T07:05:38;23.00;95.30
14411;DHT22;7290;50.854;4.354;2023-05-29T07:08:05;23.10;94.70
14411;DHT22;7290;50.854;4.354;2023-05-29T07:10:31;22.90;94.90
14411;DHT22;7290;50.854;4.354;2023-05-29T07:12:57;22.20;96.00
14411;DHT22;7290;50.854;4.354;2023-05-29T07:15:24;22.60;95.60
14411;DHT22;7290;50.854;4.354;2023-05-29T07:17:50;24.00;94.30
14411;DHT22;7290;50.854;4.354;2023-05-29T07:20:17;23.80;93.90
14411;DHT22;7290;50.854;4.354;2023-05-29T07:22:45;23.50;94.50
14411;DHT22;7290;50.854;4.354;2023-05-29T07:25:11;23.80;93.90
14411;DHT22;7290;50.854;4.354;2023-05-29T07:27:38;24.20;93.20
14411;DHT22;7290;50.854;4.354;2023-05-29T07:30:07;24.00;93.40
14411;DHT22;7290;50.854;4.354;2023-05-29T07:32:34;24.30;93.10
14411;DHT22;7290;50.854;4.354;2023-05-29T07:35:00;24.00;93.10
14411;DHT22;7290;50.854;4.354;2023-05-29T07:37:26;24.00;93.40
14411;DHT22;7290;50.854;4.354;2023-05-29T07:39:53;24.40;93.00
14411;DHT22;7290;50.854;4.354;2023-05-29T07:42:19;25.20;92.00
14411;DHT22;7290;50.854;4.354;2023-05-29T07:44:46;25.80;91.40
14411;DHT22;7290;50.854;4.354;2023-05-29T07:47:13;26.20;90.80
14411;DHT22;7290;50.854;4.354;2023-05-29T07:49:40;25.70;90.90
14411;DHT22;7290;50.854;4.354;2023-05-29T07:52:07;25.70;91.00
14411;DHT22;7290;50.854;4.354;2023-05-29T07:54:33;26.00;90.60
14411;DHT22;7290;50.854;4.354;2023-05-29T07:57:02;25.10;91.30
14411;DHT22;7290;50.854;4.354;2023-05-29T07:59:29;24.80;91.40
14411;DHT22;7290;50.854;4.354;2023-05-29T08:01:56;24.60;91.70
14411;DHT22;7290;50.854;4.354;2023-05-29T08:04:23;25.20;91.60
14411;DHT22;7290;50.854;4.354;2023-05-29T08:06:50;25.90;90.50
14411;DHT22;7290;50.854;4.354;2023-05-29T08:09:16;25.80;90.70
14411;DHT22;7290;50.854;4.354;2023-05-29T08:11:46;25.00;91.20
14411;DHT22;7290;50.854;4.354;2023-05-29T08:14:13;25.20;91.10
14411;DHT22;7290;50.854;4.354;2023-05-29T08:16:39;24.80;91.60
14411;DHT22;7290;50.854;4.354;2023-05-29T08:19:06;24.80;91.40
14411;DHT22;7290;50.854;4.354;2023-05-29T08:21:32;25.00;91.40
14411;DHT22;7290;50.854;4.354;2023-05-29T08:24:02;24.80;91.20
14411;DHT22;7290;50.854;4.354;2023-05-29T08:26:30;25.60;90.60
14411;DHT22;7290;50.854;4.354;2023-05-29T08:28:57;25.00;90.90
14411;DHT22;7290;50.854;4.354;2023-05-29T08:31:23;25.50;90.80
14411;DHT22;7290;50.854;4.354;2023-05-29T08:33:50;26.40;89.50
14411;DHT22;7290;50.854;4.354;2023-05-29T08:36:17;26.50;89.10
14411;DHT22;7290;50.854;4.354;2023-05-29T08:38:47;26.20;89.00
14411;DHT22;7290;50.854;4.354;2023-05-29T08:41:19;26.30;89.70
14411;DHT22;7290;50.854;4.354;2023-05-29T08:43:48;27.00;88.00
14411;DHT22;7290;50.854;4.354;2023-05-29T08:46:18;26.90;87.50
14411;DHT22;7290;50.854;4.354;2023-05-29T08:48:48;26.90;87.50
14411;DHT22;7290;50.854;4.354;2023-05-29T08:51:19;27.70;86.60
14411;DHT22;7290;50.854;4.354;2023-05-29T08:53:46;27.90;85.30
14411;DHT22;7290;50.854;4.354;2023-05-29T08:56:12;27.40;86.50
14411;DHT22;7290;50.854;4.354;2023-05-29T08:58:39;27.50;86.40
14411;DHT22;7290;50.854;4.354;2023-05-29T09:01:06;27.90;85.00
14411;DHT22;7290;50.854;4.354;2023-05-29T09:03:32;27.00;86.30
14411;DHT22;7290;50.854;4.354;2023-05-29T09:05:59;26.70;87.00
14411;DHT22;7290;50.854;4.354;2023-05-29T09:08:26;26.90;86.90
14411;DHT22;7290;50.854;4.354;2023-05-29T09:10:54;26.70;87.00
14411;DHT22;7290;50.854;4.354;2023-05-29T09:13:20;27.90;85.10
14411;DHT22;7290;50.854;4.354;2023-05-29T09:15:47;27.50;85.60
14411;DHT22;7290;50.854;4.354;2023-05-29T09:18:13;28.40;84.50
14411;DHT22;7290;50.854;4.354;2023-05-29T09:20:42;27.40;85.30
14411;DHT22;7290;50.854;4.354;2023-05-29T09:23:11;27.50;84.80
14411;DHT22;7290;50.854;4.354;2023-05-29T09:25:41;27.80;83.90
14411;DHT22;7290;50.854;4.354;2023-05-29T09:28:08;27.50;85.00
14411;DHT22;7290;50.854;4.354;2023-05-29T09:30:37;27.40;84.80
14411;DHT22;7290;50.854;4.354;2023-05-29T09:33:04;28.10;83.70
14411;DHT22;7290;50.854;4.354;2023-05-29T09:35:35;28.40;82.80
14411;DHT22;7290;50.854;4.354;2023-05-29T09:38:02;28.10;82.30
14411;DHT22;7290;50.854;4.354;2023-05-29T09:40:30;27.20;84.30
14411;DHT22;7290;50.854;4.354;2023-05-29T09:43:03;27.50;84.30
14411;DHT22;7290;50.854;4.354;2023-05-29T09:45:31;27.10;84.90
14411;DHT22;7290;50.854;4.354;2023-05-29T09:47:59;26.80;85.00
14411;DHT22;7290;50.854;4.354;2023-05-29T09:50:25;26.80;84.70
14411;DHT22;7290;50.854;4.354;2023-05-29T09:52:55;26.30;86.20
14411;DHT22;7290;50.854;4.354;2023-05-29T09:55:23;26.30;86.10
14411;DHT22;7290;50.854;4.354;2023-05-29T09:57:54;27.40;83.90
14411;DHT22;7290;50.854;4.354;2023-05-29T10:00:22;27.50;82.60
14411;DHT22;7290;50.854;4.354;2023-05-29T10:02:50;27.90;82.90
14411;DHT22;7290;50.854;4.354;2023-05-29T10:05:16;28.10;82.30
14411;DHT22;7290;50.854;4.354;2023-05-29T10:07:44;28.60;81.40
14411;DHT22;7290;50.854;4.354;2023-05-29T10:10:14;28.00;81.90
14411;DHT22;7290;50.854;4.354;2023-05-29T10:12:47;27.80;82.80
14411;DHT22;7290;50.854;4.354;2023-05-29T10:15:17;27.90;82.90
14411;DHT22;7290;50.854;4.354;2023-05-29T10:17:50;28.50;81.20
14411;DHT22;7290;50.854;4.354;2023-05-29T10:20:17;28.20;81.20
14411;DHT22;7290;50.854;4.354;2023-05-29T10:22:47;28.10;81.60
14411;DHT22;7290;50.854;4.354;2023-05-29T10:25:14;27.90;81.80
14411;DHT22;7290;50.854;4.354;2023-05-29T10:27:43;27.80;82.40
14411;DHT22;7290;50.854;4.354;2023-05-29T10:30:15;28.60;80.70
14411;DHT22;7290;50.854;4.354;2023-05-29T10:32:59;28.40;80.80
14411;DHT22;7290;50.854;4.354;2023-05-29T10:35:35;28.40;80.20
14411;DHT22;7290;50.854;4.354;2023-05-29T10:38:11;28.80;80.10
14411;DHT22;7290;50.854;4.354;2023-05-29T10:40:38;28.50;79.80
14411;DHT22;7290;50.854;4.354;2023-05-29T10:43:04;28.70;79.40
14411;DHT22;7290;50.854;4.354;2023-05-29T10:45:51;27.90;80.90
14411;DHT22;7290;50.854;4.354;2023-05-29T10:48:49;28.20;80.70
14411;DHT22;7290;50.854;4.354;2023-05-29T10:51:26;28.10;80.70
14411;DHT22;7290;50.854;4.354;2023-05-29T10:53:52;28.60;79.60
14411;DHT22;7290;50.854;4.354;2023-05-29T10:56:23;28.50;79.60
14411;DHT22;7290;50.854;4.354;2023-05-29T10:58:54;28.30;79.90
14411;DHT22;7290;50.854;4.354;2023-05-29T11:01:22;29.30;78.50
14411;DHT22;7290;50.854;4.354;2023-05-29T11:03:50;29.60;77.10
14411;DHT22;7290;50.854;4.354;2023-05-29T11:06:19;28.60;78.40
14411;DHT22;7290;50.854;4.354;2023-05-29T11:08:47;28.00;80.00
14411;DHT22;7290;50.854;4.354;2023-05-29T11:11:15;28.40;79.00
14411;DHT22;7290;50.854;4.354;2023-05-29T11:13:42;29.20;78.10
14411;DHT22;7290;50.854;4.354;2023-05-29T11:16:20;30.40;76.10
14411;DHT22;7290;50.854;4.354;2023-05-29T11:19:04;30.20;76.00
14411;DHT22;7290;50.854;4.354;2023-05-29T11:21:34;29.80;76.10
14411;DHT22;7290;50.854;4.354;2023-05-29T11:24:06;30.80;75.00
14411;DHT22;7290;50.854;4.354;2023-05-29T11:26:33;31.00;74.20
14411;DHT22;7290;50.854;4.354;2023-05-29T11:29:03;29.90;74.90
14411;DHT22;7290;50.854;4.354;2023-05-29T11:31:32;29.40;76.30
14411;DHT22;7290;50.854;4.354;2023-05-29T11:34:01;29.30;76.30
14411;DHT22;7290;50.854;4.354;2023-05-29T11:36:31;29.50;76.10
14411;DHT22;7290;50.854;4.354;2023-05-29T11:38:58;30.20;75.00
14411;DHT22;7290;50.854;4.354;2023-05-29T11:41:24;30.00;75.80
14411;DHT22;7290;50.854;4.354;2023-05-29T11:43:58;29.70;76.20
14411;DHT22;7290;50.854;4.354;2023-05-29T11:46:27;29.40;75.50
14411;DHT22;7290;50.854;4.354;2023-05-29T11:48:57;28.70;76.90
14411;DHT22;7290;50.854;4.354;2023-05-29T11:51:25;28.30;78.30
14411;DHT22;7290;50.854;4.354;2023-05-29T11:53:52;28.80;77.60
14411;DHT22;7290;50.854;4.354;2023-05-29T11:56:23;28.30;77.90
14411;DHT22;7290;50.854;4.354;2023-05-29T11:58:52;27.90;79.00
14411;DHT22;7290;50.854;4.354;2023-05-29T12:01:22;27.20;80.20
14411;DHT22;7290;50.854;4.354;2023-05-29T12:03:51;28.00;79.70
14411;DHT22;7290;50.854;4.354;2023-05-29T12:06:31;28.90;77.40
14411;DHT22;7290;50.854;4.354;2023-05-29T12:08:59;29.10;76.90
14411;DHT22;7290;50.854;4.354;2023-05-29T12:11:26;28.70;77.50
14411;DHT22;7290;50.854;4.354;2023-05-29T12:13:56;28.10;78.10
14411;DHT22;7290;50.854;4.354;2023-05-29T12:16:22;27.80;78.80
14411;DHT22;7290;50.854;4.354;2023-05-29T12:18:49;27.20;79.70
14411;DHT22;7290;50.854;4.354;2023-05-29T12:21:16;26.80;80.60
14411;DHT22;7290;50.854;4.354;2023-05-29T12:23:42;27.20;80.30
14411;DHT22;7290;50.854;4.354;2023-05-29T12:26:09;27.10;79.50
14411;DHT22;7290;50.854;4.354;2023-05-29T12:28:42;27.10;79.80
14411;DHT22;7290;50.854;4.354;2023-05-29T12:31:09;27.00;80.30
14411;DHT22;7290;50.854;4.354;2023-05-29T12:33:40;26.30;81.60
14411;DHT22;7290;50.854;4.354;2023-05-29T12:36:09;26.20;81.50
14411;DHT22;7290;50.854;4.354;2023-05-29T12:38:47;25.70;82.50
14411;DHT22;7290;50.854;4.354;2023-05-29T12:41:24;25.00;84.10
14411;DHT22;7290;50.854;4.354;2023-05-29T12:43:57;24.80;85.30
14411;DHT22;7290;50.854;4.354;2023-05-29T12:46:24;24.60;85.60
14411;DHT22;7290;50.854;4.354;2023-05-29T12:48:53;24.60;86.10
14411;DHT22;7290;50.854;4.354;2023-05-29T12:51:23;24.50;86.00
14411;DHT22;7290;50.854;4.354;2023-05-29T12:53:49;24.60;85.60
14411;DHT22;7290;50.854;4.354;2023-05-29T12:56:15;24.80;85.30
14411;DHT22;7290;50.854;4.354;2023-05-29T12:58:42;24.50;86.00
14411;DHT22;7290;50.854;4.354;2023-05-29T13:01:12;24.60;86.30
14411;DHT22;7290;50.854;4.354;2023-05-29T13:03:39;24.30;87.30
14411;DHT22;7290;50.854;4.354;2023-05-29T13:06:06;24.30;87.40
14411;DHT22;7290;50.854;4.354;2023-05-29T13:08:32;24.50;87.60
14411;DHT22;7290;50.854;4.354;2023-05-29T13:11:00;24.20;87.80
14411;DHT22;7290;50.854;4.354;2023-05-29T13:13:26;24.60;87.10
14411;DHT22;7290;50.854;4.354;2023-05-29T13:15:56;24.30;87.50
14411;DHT22;7290;50.854;4.354;2023-05-29T13:18:22;24.40;87.40
14411;DHT22;7290;50.854;4.354;2023-05-29T13:20:50;23.90;87.60
14411;DHT22;7290;50.854;4.354;2023-05-29T13:23:16;24.30;87.40
14411;DHT22;7290;50.854;4.354;2023-05-29T13:25:43;24.40;87.40
14411;DHT22;7290;50.854;4.354;2023-05-29T13:28:09;24.30;87.40
14411;DHT22;7290;50.854;4.354;2023-05-29T13:30:35;24.50;87.30
14411;DHT22;7290;50.854;4.354;2023-05-29T13:33:02;24.20;88.10
14411;DHT22;7290;50.854;4.354;2023-05-29T13:35:28;24.10;88.70
14411;DHT22;7290;50.854;4.354;2023-05-29T13:37:54;23.90;88.90
14411;DHT22;7290;50.854;4.354;2023-05-29T13:40:20;23.90;89.00
14411;DHT22;7290;50.854;4.354;2023-05-29T13:42:47;24.10;88.20
14411;DHT22;7290;50.854;4.354;2023-05-29T13:45:13;23.80;89.10
14411;DHT22;7290;50.854;4.354;2023-05-29T13:47:40;23.90;88.70
14411;DHT22;7290;50.854;4.354;2023-05-29T13:50:09;23.50;89.70
14411;DHT22;7290;50.854;4.354;2023-05-29T13:52:35;23.80;89.60
14411;DHT22;7290;50.854;4.354;2023-05-29T13:55:02;24.20;87.60
14411;DHT22;7290;50.854;4.354;2023-05-29T13:57:33;24.10;88.00
14411;DHT22;7290;50.854;4.354;2023-05-29T14:00:00;24.20;88.40
14411;DHT22;7290;50.854;4.354;2023-05-29T14:02:26;23.90;88.40
14411;DHT22;7290;50.854;4.354;2023-05-29T14:04:52;23.40;89.40
14411;DHT22;7290;50.854;4.354;2023-05-29T14:07:19;23.20;90.30
14411;DHT22;7290;50.854;4.354;2023-05-29T14:09:46;23.80;89.90
14411;DHT22;7290;50.854;4.354;2023-05-29T14:12:13;24.00;89.00
14411;DHT22;7290;50.854;4.354;2023-05-29T14:14:40;23.70;89.20
14411;DHT22;7290;50.854;4.354;2023-05-29T14:17:06;23.80;89.20
14411;DHT22;7290;50.854;4.354;2023-05-29T14:19:32;23.70;88.50
14411;DHT22;7290;50.854;4.354;2023-05-29T14:21:58;24.00;88.90
14411;DHT22;7290;50.854;4.354;2023-05-29T14:24:27;23.80;89.20
14411;DHT22;7290;50.854;4.354;2023-05-29T14:26:53;24.20;88.50
14411;DHT22;7290;50.854;4.354;2023-05-29T14:29:19;24.50;86.90
14411;DHT22;7290;50.854;4.354;2023-05-29T14:31:46;25.00;86.00
14411;DHT22;7290;50.854;4.354;2023-05-29T14:34:13;25.20;85.60
14411;DHT22;7290;50.854;4.354;2023-05-29T14:36:40;25.30;86.00
14411;DHT22;7290;50.854;4.354;2023-05-29T14:39:07;25.40;85.70
14411;DHT22;7290;50.854;4.354;2023-05-29T14:41:34;25.20;85.60
14411;DHT22;7290;50.854;4.354;2023-05-29T14:44:00;25.10;86.00
14411;DHT22;7290;50.854;4.354;2023-05-29T14:46:26;25.20;85.70
14411;DHT22;7290;50.854;4.354;2023-05-29T14:48:57;25.10;85.30
14411;DHT22;7290;50.854;4.354;2023-05-29T14:51:26;24.40;87.10
14411;DHT22;7290;50.854;4.354;2023-05-29T14:53:52;24.30;88.00
14411;DHT22;7290;50.854;4.354;2023-05-29T14:56:19;24.40;87.70
14411;DHT22;7290;50.854;4.354;2023-05-29T14:58:46;24.30;88.10
14411;DHT22;7290;50.854;4.354;2023-05-29T15:01:13;24.50;88.40
14411;DHT22;7290;50.854;4.354;2023-05-29T15:03:39;24.60;88.60
14411;DHT22;7290;50.854;4.354;2023-05-29T15:06:06;24.60;88.90
14411;DHT22;7290;50.854;4.354;2023-05-29T15:08:32;24.80;88.40
14411;DHT22;7290;50.854;4.354;2023-05-29T15:11:00;24.90;87.40
14411;DHT22;7290;50.854;4.354;2023-05-29T15:13:26;24.70;87.90
14411;DHT22;7290;50.854;4.354;2023-05-29T15:15:53;24.30;87.80
14411;DHT22;7290;50.854;4.354;2023-05-29T15:18:20;24.40;87.50
14411;DHT22;7290;50.854;4.354;2023-05-29T15:20:46;24.50;87.10
14411;DHT22;7290;50.854;4.354;2023-05-29T15:23:12;24.00;87.10
14411;DHT22;7290;50.854;4.354;2023-05-29T15:25:38;23.70;88.50
14411;DHT22;7290;50.854;4.354;2023-05-29T15:28:04;23.80;88.80
14411;DHT22;7290;50.854;4.354;2023-05-29T15:30:31;23.60;89.40
14411;DHT22;7290;50.854;4.354;2023-05-29T15:32:58;23.80;88.60
14411;DHT22;7290;50.854;4.354;2023-05-29T15:35:24;23.50;89.00
14411;DHT22;7290;50.854;4.354;2023-05-29T15:37:50;23.40;88.90
14411;DHT22;7290;50.854;4.354;2023-05-29T15:40:17;23.50;88.50
14411;DHT22;7290;50.854;4.354;2023-05-29T15:42:44;23.30;89.00
14411;DHT22;7290;50.854;4.354;2023-05-29T15:45:11;23.20;89.30
14411;DHT22;7290;50.854;4.354;2023-05-29T15:47:38;23.30;89.10